Hoppa till innehåll

METAR väder och rapporter - ESGG

Nedan listas information från vald flygplats. Andra METARs finns längre ned på sidan. Kontakta oss om någon saknas eller skriv in egen ICAO-kod.

Andra intressanta METARs

Klicka på önskad rubrik nedan för att visa nuvarande väder för den platsen.

Avstånd från stationen: NO 27kmESGG - Göteborg (Landvetter)
Uppdaterad: 2022-01-28 17:50
 Vind från S
Vind: S 13 km/h
Temperatur: -2°C
Vindavkylning: -7°C
Daggpunkt: -4°C
Luftfuktighet: 86%
Barometer: 1021 hPa
Summering: Klart
Sikt: mer än 10 km
2022/01/28 16:50 ESGG 281650Z 19007KT CAVOK M02/M04 Q1021
Klart
Klart
  Visa detaljer för Göteborg (Landvetter)
Avstånd från stationen: N 28kmESGP - Göteborg (Säve)
Uppdaterad: 2022-01-28 17:50
 Vind från S
Vind: S 11 km/h
Temperatur: 1°C
Vindavkylning: -2°C
Daggpunkt: -3°C
Luftfuktighet: 75%
Barometer: 1021 hPa
Summering: Klart
Sikt: mer än 10 km
2022/01/28 16:50 ESGP 281650Z 19006KT CAVOK 01/M03 Q1021
Klart
Klart
  Visa detaljer för Göteborg (Säve)
Avstånd från stationen: NO 419kmESSA - Stockholm (Arlanda)
Uppdaterad: 2022-01-28 17:50
 Vind från V
Vind: V 17 km/h
Temperatur: -2°C
Vindavkylning: -7°C
Daggpunkt: -7°C
Luftfuktighet: 69%
Barometer: 1016 hPa
Summering: Klart
Sikt: mer än 10 km
2022/01/28 16:50 ESSA 281650Z 28009KT CAVOK M02/M07 Q1016 NOSIG
Klart
Klart
  Visa detaljer för Stockholm (Arlanda)
Avstånd från stationen: ONO 404kmESSB - Stockholm (Bromma)
Uppdaterad: 2022-01-28 17:50
 Vind från VNV
Vind: VNV 19 km/h
Temperatur: 0°C
Vindavkylning: -5°C
Daggpunkt: -6°C
Luftfuktighet: 64%
Barometer: 1016 hPa
Summering: Klart
Sikt: mer än 10 km
2022/01/28 16:50 ESSB 281650Z 29010KT CAVOK M00/M06 Q1016
Klart
Klart
  Visa detaljer för Stockholm (Bromma)
Avstånd från stationen: ONO 323kmESKN - Stockholm (Skavsta)
Uppdaterad: 2022-01-28 17:50
 Vind från V
Vind: V 19 km/h
Temperatur: -1°C
Vindavkylning: -7°C
Daggpunkt: -6°C
Luftfuktighet: 69%
Barometer: 1017 hPa
Summering: Klart
Sikt: mer än 10 km
2022/01/28 16:50 ESKN 281650Z 27010KT CAVOK M01/M06 Q1017
Klart
Klart
  Visa detaljer för Stockholm (Skavsta)
Avstånd från stationen: SSO 238kmESMS - Malmö flygplats (Sturup)
Uppdaterad: 2022-01-28 17:50
 Vind från V
Vind: V 11 km/h
Temperatur: 1°C
Vindavkylning: -2°C
Daggpunkt: -5°C
Luftfuktighet: 65%
Barometer: 1024 hPa
Summering: Klart
Sikt: mer än 10 km
2022/01/28 16:50 ESMS 281650Z 28006KT CAVOK 01/M05 Q1024
Klart
Klart
  Visa detaljer för Malmö flygplats (Sturup)
Avstånd från stationen: O 382kmESSV - Visby flygplats
Uppdaterad: 2022-01-28 17:50
 Vind från NV
Vind: NV 39 km/h
Temperatur: 2°C
Vindavkylning: -4°C
Daggpunkt: -5°C
Luftfuktighet: 60%
Barometer: 1017 hPa
Moln: Delvis molnigt
Sikt: 10 km
2022/01/28 16:50 ESSV 281650Z 32021KT 9999 NSC 02/M05 Q1017
Delvis molnigt
Delvis molnigt
  Visa detaljer för Visby flygplats
Avstånd från stationen: NNO 92kmESGT - Trollhättan
Uppdaterad: 2022-01-28 17:50
 Vind från S
Vind: S 11 km/h
Temperatur: -1°C
Vindavkylning: -5°C
Daggpunkt: -6°C
Luftfuktighet: 69%
Barometer: 1020 hPa
Moln: Klart
Sikt: 10 km
2022/01/28 16:50 ESGT 281650Z AUTO 19006KT 9999 NCD M01/M06 Q1020
Klart
Klart
  Visa detaljer för Trollhättan
Avstånd från stationen: ONO 129kmESGJ - Jönköpings flygplats
Uppdaterad: 2022-01-28 17:50
 Vind från SSV
Vind: SSV 7 km/h
Temperatur: -4°C
Vindavkylning: -7°C
Daggpunkt: -6°C
Luftfuktighet: 86%
Barometer: 1020 hPa
Moln: Klart
Sikt: 10 km
2022/01/28 16:50 ESGJ 281650Z AUTO 21004KT 9999 NCD M04/M06 Q1020
Klart
Klart
  Visa detaljer för Jönköpings flygplats
Avstånd från stationen: NNO 229kmESOK - Karlstad
Uppdaterad: 2022-01-28 17:50
 Vind från SSV
Vind: SSV 11 km/h
Temperatur: -1°C
Vindavkylning: -5°C
Daggpunkt: -7°C
Luftfuktighet: 64%
Barometer: 1018 hPa
Moln: Klart
Sikt: 10 km
2022/01/28 16:50 ESOK 281650Z AUTO 21006KT 9999 NCD M01/M07 Q1018
Klart
Klart
  Visa detaljer för Karlstad
Avstånd från stationen: N 643kmESNZ - Östersund (Frösön)
Uppdaterad: 2022-01-28 17:50
 Vind från SSV
Vind: SSV 22 km/h
Temperatur: -2°C
Vindavkylning: -8°C
Daggpunkt: -6°C
Luftfuktighet: 74%
Barometer: 1007 hPa
Moln: Några få moln
Sikt: 10 km
Molninformation: Några få moln 640 m
2022/01/28 16:50 ESNZ 281650Z 20012KT 9999 FEW021 M02/M06 Q1007
Några få moln
Några få moln
  Visa detaljer för Östersund (Frösön)
Avstånd från stationen: SSO 216kmEKCH - Köpenhamn (Kastrup)
Uppdaterad: 2022-01-28 17:50
 Vind från V
Vind: V 13 km/h
Temperatur: 1°C
Vindavkylning: -3°C
Daggpunkt: -3°C
Luftfuktighet: 75%
Barometer: 1025 hPa
Moln: Klart
Sikt: 10 km
2022/01/28 16:50 EKCH 281650Z AUTO 27007KT 9999 NCD 01/M03 Q1025 NOSIG
Klart
Klart
  Visa detaljer för Köpenhamn (Kastrup)
Avstånd från stationen: SV 263kmEKBI - Billund Airport
Uppdaterad: 2022-01-28 17:50
 Vind från SV
Vind: SV 11 km/h
Temperatur: 4°C
Vindavkylning: 1°C
Daggpunkt: 0°C
Luftfuktighet: 75%
Barometer: 1025 hPa
Moln: Övervägande molnigt
Sikt: 10 km
Molninformation: Övervägande molnigt 945 m
2022/01/28 16:50 EKBI 281650Z AUTO 23006KT 9999 BKN031/// 04/M00 Q1025
Övervägande molnigt
Övervägande molnigt
  Visa detaljer för Billund Airport
Avstånd från stationen: N 302kmENGM - Oslo (Gardermoen)
Uppdaterad: 2022-01-28 17:50
 Vind från SSV
Vind: SSV 11 km/h
Temperatur: -1°C
Vindavkylning: -5°C
Daggpunkt: -8°C
Luftfuktighet: 59%
Barometer: 1015 hPa
Summering: Skurar i närheten
Moln: Delvis molnigt
Sikt: 10 km
2022/01/28 16:50 ENGM 281650Z 20006KT 9999 VCSH NSC M01/M08 Q1015 TEMPO 4000 -SN
Nearby showers, Delvis molnigt
Nearby showers
Delvis molnigt
  Visa detaljer för Oslo (Gardermoen)
Avstånd från stationen: NO 540kmEFMA - Mariehamn / Åland
Uppdaterad: 2022-01-28 17:50
 Vind från NV
Vind: NV 17 km/h
Temperatur: 0°C
Vindavkylning: -4°C
Daggpunkt: -7°C
Luftfuktighet: 60%
Barometer: 1013 hPa
Summering: Klart
Sikt: mer än 10 km
2022/01/28 16:50 EFMA 281650Z AUTO 32009KT 290V350 CAVOK M00/M07 Q1013
Klart
Klart
  Visa detaljer för Mariehamn / Åland
Avstånd från stationen: S 558kmEDDT - Berlin (Tegel), Germany
Uppdaterad: 2020-11-09 07:50
Ej aktuell
 Vind från O
Vind: O 11 km/h
Temperatur: 6°C
Vindavkylning: 4°C
Daggpunkt: 5°C
Luftfuktighet: 93%
Barometer: 1027 hPa
Summering: Dimmigt
Moln: Genommulet
Sikt: 3 km
Molninformation: Genommulet 91 m
2020/11/09 06:50 EDDT 090650Z 09006KT 050V120 3000 BR OVC003 06/05 Q1027
Dimmigt, Genommulet
Dimmigt
Genommulet
  Visa detaljer för Berlin (Tegel), Germany
Avstånd från stationen: SV 737kmEHAM - Amsterdam (Schiphol)
Uppdaterad: 2022-01-28 17:55
 Vind från SV
Vind: SV 20 km/h
Temperatur: 7°C
Vindavkylning: 4°C
Daggpunkt: 5°C
Luftfuktighet: 87%
Barometer: 1032 hPa
Moln: Övervägande molnigt
Sikt: 10 km
Molninformation: Delvis molnigt 305 m
Övervägande molnigt 488 m
2022/01/28 16:55 EHAM 281655Z 23011KT 9999 SCT010 BKN016 07/05 Q1032 TEMPO BKN013
Övervägande molnigt
Övervägande molnigt
  Visa detaljer för Amsterdam (Schiphol)
Avstånd från stationen: ONO 808kmEFHK - Helsingfors (Vantaa)
Uppdaterad: 2022-01-28 17:50
 Vind från NV
Vind: NV 15 km/h
Temperatur: -2°C
Vindavkylning: -7°C
Daggpunkt: -3°C
Luftfuktighet: 93%
Barometer: 1006 hPa
Summering: Light Snow
Moln: Övervägande molnigt
Sikt: 10 km
Molninformation: Några få moln 305 m
Övervägande molnigt 457 m
Övervägande molnigt 1219 m
2022/01/28 16:50 EFHK 281650Z 31008KT 9999 -SN FEW010 BKN015 BKN040 M02/M03 Q1006 TEMPO 7000 BKN010
Light snow, Övervägande molnigt
Light snow
Övervägande molnigt
  Visa detaljer för Helsingfors (Vantaa)
Avstånd från stationen: SSV 537kmEDDW - Bremen
Uppdaterad: 2022-01-28 17:50
 Vind från V
Vind: V 13 km/h
Temperatur: 5°C
Vindavkylning: 2°C
Daggpunkt: 0°C
Luftfuktighet: 70%
Barometer: 1031 hPa
Moln: Övervägande molnigt
Sikt: 10 km
Molninformation: Övervägande molnigt 1036 m
2022/01/28 16:50 EDDW 281650Z 27007KT 9999 BKN034 05/00 Q1031 NOSIG
Övervägande molnigt
Övervägande molnigt
  Visa detaljer för Bremen
Avstånd från stationen: SSV 861kmEDDF - Frankfurt am Main
Uppdaterad: 2022-01-28 17:50
 Vind från V
Vind: V 9 km/h
Temperatur: 5°C
Vindavkylning: 3°C
Daggpunkt: 0°C
Luftfuktighet: 70%
Barometer: 1034 hPa
Moln: Några få moln
Sikt: 10 km
Molninformation: Några få moln 1067 m
2022/01/28 16:50 EDDF 281650Z 26005KT 9999 FEW035 05/M00 Q1034 NOSIG
Några få moln
Några få moln
  Visa detaljer för Frankfurt am Main
Avstånd från stationen: SV 880kmEBBR - Bryssel international
Uppdaterad: 2022-01-28 17:50
 Vind från SSV
Vind: SSV 15 km/h
Temperatur: 5°C
Vindavkylning: 2°C
Daggpunkt: 3°C
Luftfuktighet: 87%
Barometer: 1034 hPa
Moln: Delvis molnigt
Sikt: 7 km
Molninformation: Delvis molnigt 244 m
2022/01/28 16:50 EBBR 281650Z 20008KT 7000 SCT008 05/03 Q1034
Delvis molnigt
Delvis molnigt
  Visa detaljer för Bryssel international
Avstånd från stationen: SV 738kmEHAM - Amsterdam (Schiphol)
Uppdaterad: 2022-01-28 17:55
 Vind från SV
Vind: SV 20 km/h
Temperatur: 7°C
Vindavkylning: 4°C
Daggpunkt: 5°C
Luftfuktighet: 87%
Barometer: 1032 hPa
Moln: Övervägande molnigt
Sikt: 10 km
Molninformation: Delvis molnigt 305 m
Övervägande molnigt 488 m
2022/01/28 16:55 EHAM 281655Z 23011KT 9999 SCT010 BKN016 07/05 Q1032 TEMPO BKN013
Övervägande molnigt
Övervägande molnigt
  Visa detaljer för Amsterdam (Schiphol)
Avstånd från stationen: SV 1044kmEGLL - London (Heathrow)
Uppdaterad: 2022-01-28 17:50
 Vind från SV
Vind: SV 11 km/h
Temperatur: 8°C
Vindavkylning: 6°C
Daggpunkt: 4°C
Luftfuktighet: 76%
Barometer: 1033 hPa
Moln: Övervägande molnigt
Sikt: 10 km
Molninformation: Övervägande molnigt 671 m
2022/01/28 16:50 EGLL 281650Z AUTO 23006KT 9999 BKN022 08/04 Q1033
Övervägande molnigt
Övervägande molnigt
  Visa detaljer för London (Heathrow)
Avstånd från stationen: SV 1132kmLFPG - Paris (Charles de Gaulle)
Uppdaterad: 2022-01-28 18:00
 Vind från SSV
Vind: SSV 13 km/h
Temperatur: 7°C
Vindavkylning: 5°C
Daggpunkt: 3°C
Luftfuktighet: 76%
Barometer: 1037 hPa
Moln: Övervägande molnigt
Sikt: 10 km
Molninformation: Övervägande molnigt 640 m
2022/01/28 17:00 LFPG 281700Z 21007KT 180V260 9999 BKN021 07/03 Q1037 NOSIG
Övervägande molnigt
Övervägande molnigt
  Visa detaljer för Paris (Charles de Gaulle)
Avstånd från stationen: SSV 1142kmLSZH - Zürich Airport
Uppdaterad: 2022-01-28 17:50
 Vind från VNV
Vind: VNV 11 km/h
Temperatur: 3°C
Vindavkylning: 0°C
Daggpunkt: -1°C
Luftfuktighet: 75%
Barometer: 1036 hPa
Moln: Några få moln
Sikt: 10 km
Molninformation: Några få moln 823 m
2022/01/28 16:50 LSZH 281650Z 29006KT 9999 FEW027 03/M01 Q1036 NOSIG
Några få moln
Några få moln
  Visa detaljer för Zürich Airport
Avstånd från stationen: S 1749kmLIRF - Rome Airport (Fiumicino - Leonardo da Vinci)
Uppdaterad: 2022-01-28 17:50
 Vind från VNV
Vind: VNV 9 km/h
Temperatur: 11°C
Daggpunkt: 8°C
Luftfuktighet: 82%
Barometer: 1023 hPa
Summering: Klart
Sikt: mer än 10 km
2022/01/28 16:50 LIRF 281650Z 30005KT CAVOK 11/08 Q1023 NOSIG
Klart
Klart
  Visa detaljer för Rome Airport (Fiumicino - Leonardo da Vinci)
Avstånd från stationen: SO 2679kmLTAI - Antalya
Uppdaterad: 2022-01-28 17:50
 Vind från NNV
Vind: NNV 7 km/h
Temperatur: 6°C
Vindavkylning: 4°C
Daggpunkt: -7°C
Luftfuktighet: 39%
Barometer: 1020 hPa
Summering: Klart
Sikt: mer än 10 km
2022/01/28 16:50 LTAI 281650Z 34004KT CAVOK 06/M07 Q1020 NOSIG
Klart
Klart
  Visa detaljer för Antalya
Avstånd från stationen: VSV 6074kmKJFK - New Your (JFK)
Uppdaterad: 2022-01-28 17:51
 Vind från calm
Vind: Vindstilla
Temperatur: -1°C
Daggpunkt: -3°C
Luftfuktighet: 86%
Barometer: 1020.7 hPa
Summering: Light snow, Dimmigt
Moln: Genommulet
Sikt: 6 km
Molninformation: Några få moln 518 m
Delvis molnigt 975 m
Genommulet 1829 m
2022/01/28 16:51 KJFK 281651Z 00000KT 4SM -SN BR FEW017 SCT032 OVC060 M01/M03 A3014 RMK AO2 SLP205 P0000 T10061028
Light snow, Dimmigt, Genommulet
Light snow
Dimmigt
Genommulet
  Visa detaljer för New Your (JFK)
Avstånd från stationen: VSV 8848kmKLAX - Los Angeles International Airport
Uppdaterad: 2022-01-28 17:53
 Vind från varierande
Vind: varierande 6 km/h
Temperatur: 16°C
Daggpunkt: -6°C
Luftfuktighet: 22%
Barometer: 1025.1 hPa
Moln: Övervägande molnigt
Sikt: 16 km
Molninformation: Några få moln 7315 m
Övervägande molnigt 8839 m
2022/01/28 16:53 KLAX 281653Z VRB03KT 10SM FEW240 BKN290 16/M06 A3027 RMK AO2 SLP251 T01561061
Övervägande molnigt
Övervägande molnigt
  Visa detaljer för Los Angeles International Airport
Avstånd från stationen: SO 4968kmOMDB - Dubai International Airport
Uppdaterad: 2022-01-28 18:00
 Vind från V
Vind: V 13 km/h
Temperatur: 22°C
Daggpunkt: 17°C
Luftfuktighet: 73%
Barometer: 1018 hPa
Moln: Några få moln
Sikt: 10 km
Molninformation: Några få moln 640 m
2022/01/28 17:00 OMDB 281700Z 28007KT 9999 FEW021 22/17 Q1018 NOSIG
Några få moln
Några få moln
  Visa detaljer för Dubai International Airport
Avstånd från stationen: OSO 8570kmRJTT - Tokyo International Airport
Uppdaterad: 2022-01-28 18:00
 Vind från N
Vind: N 30 km/h
Temperatur: 6°C
Vindavkylning: 2°C
Daggpunkt: -4°C
Luftfuktighet: 49%
Barometer: 1013 hPa
Moln: Övervägande molnigt
Sikt: 10 km
Molninformation: Några få moln 1524 m
Övervägande molnigt 1829 m
2022/01/28 17:00 RJTT 281700Z 35016KT 9999 FEW050 BKN060 06/M04 Q1013 NOSIG
Övervägande molnigt
Övervägande molnigt
  Visa detaljer för Tokyo International Airport
Avstånd från stationen: OSO 7125kmZBAA - Peking (Beijing Capital)
Uppdaterad: 2022-01-28 18:00
 Vind från NNV
Vind: NNV 7 km/h
Temperatur: -6°C
Vindavkylning: -9°C
Daggpunkt: -14°C
Luftfuktighet: 54%
Barometer: 1029 hPa
Summering: Klart
Sikt: mer än 10 km
2022/01/28 17:00 ZBAA 281700Z 33002MPS CAVOK M06/M14 Q1029 NOSIG
Klart
Klart
  Visa detaljer för Peking (Beijing Capital)
VÄDER KURIOSA -  AstronomyThe Sun is around 4.5 billion years old.